createdAt,value
2022-10-16T02:40:11.419Z,14.90
2022-10-16T02:44:46.858Z,14.90
2022-10-16T02:53:52.704Z,14.90
2022-10-16T02:57:57.394Z,14.80
2022-10-16T03:02:01.288Z,14.70
2022-10-16T03:06:12.861Z,14.60
2022-10-16T03:10:16.785Z,14.60
2022-10-16T03:14:22.613Z,14.50
2022-10-16T03:18:28.784Z,14.50
2022-10-16T03:22:32.176Z,14.40
2022-10-16T03:26:37.953Z,14.50
2022-10-16T03:30:41.328Z,14.50
2022-10-16T03:34:47.035Z,14.50
2022-10-16T03:38:50.631Z,14.50
2022-10-16T03:42:58.374Z,14.40
2022-10-16T03:47:01.800Z,14.40
2022-10-16T03:51:07.092Z,14.40
2022-10-16T03:55:12.257Z,14.40
2022-10-16T03:59:21.368Z,14.30
2022-10-16T04:03:50.437Z,14.20
2022-10-16T04:07:54.074Z,14.20
2022-10-16T04:12:01.405Z,14.10
2022-10-16T04:16:05.183Z,14.10
2022-10-16T04:20:10.702Z,14.00
2022-10-16T04:24:16.411Z,14.00
2022-10-16T04:28:20.028Z,14.10
2022-10-16T04:32:27.424Z,14.10
2022-10-16T04:43:10.650Z,14.20
2022-10-16T04:47:21.081Z,14.10
2022-10-16T04:51:50.603Z,14.10
2022-10-16T04:56:28.005Z,14.10
2022-10-16T05:12:47.697Z,13.90
2022-10-16T05:23:41.667Z,13.80
2022-10-16T05:27:48.557Z,13.60
2022-10-16T05:38:15.016Z,13.60
2022-10-16T05:49:10.378Z,13.50
2022-10-16T05:53:26.517Z,13.50
2022-10-16T05:57:29.989Z,13.60
2022-10-16T06:02:01.363Z,13.60
2022-10-16T06:12:21.732Z,13.70
2022-10-16T06:16:28.539Z,13.80
2022-10-16T06:20:57.525Z,13.80
2022-10-16T06:25:27.246Z,13.80
2022-10-16T06:29:36.731Z,13.90
2022-10-16T06:34:10.210Z,14.00
2022-10-16T06:45:25.942Z,14.30
2022-10-16T06:49:31.865Z,14.80
2022-10-16T06:54:04.170Z,15.00
2022-10-16T06:58:11.013Z,15.30
2022-10-16T07:02:40.803Z,15.50
2022-10-16T07:06:47.187Z,15.60
2022-10-16T07:11:18.261Z,15.60
2022-10-16T07:15:53.120Z,15.60
2022-10-16T07:20:52.553Z,15.60
2022-10-16T07:25:22.593Z,15.70
2022-10-16T07:30:45.649Z,15.80
2022-10-16T07:35:15.616Z,15.90
2022-10-16T07:39:19.389Z,16.00
2022-10-16T07:55:27.680Z,16.50
2022-10-16T07:59:33.572Z,16.80
2022-10-16T08:03:38.440Z,16.90
2022-10-16T08:08:06.994Z,16.90
2022-10-16T08:12:43.698Z,17.00
2022-10-16T08:16:50.250Z,17.20
2022-10-16T08:20:59.816Z,17.50
2022-10-16T08:25:06.561Z,17.80
2022-10-16T08:29:15.923Z,18.20
2022-10-16T08:33:22.015Z,18.40
2022-10-16T08:37:25.563Z,18.50
2022-10-16T08:42:04.324Z,18.60
2022-10-16T08:51:41.858Z,18.90
2022-10-16T08:55:54.324Z,19.00
2022-10-16T09:00:02.331Z,19.10
2022-10-16T09:04:15.777Z,19.20
2022-10-16T09:08:24.281Z,19.50
2022-10-16T09:12:56.465Z,19.90
2022-10-16T09:22:17.251Z,20.30
2022-10-16T09:30:30.491Z,20.50
2022-10-16T09:34:38.388Z,20.50
2022-10-16T09:38:41.603Z,20.80
2022-10-16T09:42:47.822Z,21.00
2022-10-16T09:47:19.071Z,21.20
2022-10-16T09:51:39.684Z,21.50
2022-10-16T09:55:54.304Z,22.00
2022-10-16T10:00:00.089Z,22.50
2022-10-16T10:04:04.084Z,22.60
2022-10-16T10:08:09.029Z,22.70
2022-10-16T10:12:29.741Z,22.80
2022-10-16T10:16:36.347Z,22.90
2022-10-16T10:25:16.367Z,24.00
2022-10-16T10:29:31.919Z,24.20
2022-10-16T10:33:49.977Z,24.10
2022-10-16T10:38:05.353Z,24.20
2022-10-16T10:42:52.589Z,24.20
2022-10-16T10:47:42.096Z,24.40
2022-10-16T10:53:35.246Z,24.40
2022-10-16T10:58:25.221Z,24.30
2022-10-16T11:02:55.305Z,24.30
2022-10-16T11:07:05.883Z,24.60
2022-10-16T11:11:17.680Z,25.00
2022-10-16T11:15:26.542Z,25.20
2022-10-16T11:24:47.171Z,25.60
2022-10-16T11:29:32.068Z,25.40
2022-10-16T11:34:04.411Z,25.40
2022-10-16T11:38:38.805Z,25.70
2022-10-16T11:42:50.059Z,25.70
2022-10-16T11:47:33.687Z,25.50
2022-10-16T11:51:53.423Z,25.50
2022-10-16T11:56:18.278Z,25.50
2022-10-16T12:00:32.196Z,25.50
2022-10-16T12:04:59.827Z,25.60
2022-10-16T12:09:07.319Z,26.00
2022-10-16T12:13:39.685Z,26.20
2022-10-16T12:17:42.584Z,26.20
2022-10-16T12:21:46.874Z,26.10
2022-10-16T12:26:00.872Z,26.10
2022-10-16T12:30:09.179Z,26.10
2022-10-16T12:34:44.279Z,26.00
2022-10-16T13:11:21.164Z,25.80
2022-10-16T13:15:58.582Z,25.70
2022-10-16T13:20:43.128Z,25.60
2022-10-16T13:25:29.881Z,25.50
2022-10-16T13:29:34.853Z,25.70
2022-10-16T13:33:43.220Z,25.70
2022-10-16T13:38:37.673Z,25.80
2022-10-16T13:43:26.327Z,25.70
2022-10-16T13:47:31.215Z,25.70
2022-10-16T13:51:34.697Z,25.70
2022-10-16T13:55:38.022Z,25.50
2022-10-16T13:59:42.671Z,25.40
2022-10-16T14:03:49.472Z,25.30
2022-10-16T14:07:58.470Z,25.30
2022-10-16T14:12:09.590Z,25.10
2022-10-16T14:16:24.676Z,25.10
2022-10-16T14:20:34.329Z,25.10
2022-10-16T14:29:34.222Z,24.90
2022-10-16T14:33:37.837Z,24.80
2022-10-16T14:37:40.702Z,24.70
2022-10-16T14:41:50.114Z,24.60
2022-10-16T14:45:58.192Z,24.50
2022-10-16T14:50:03.557Z,24.50
2022-10-16T14:54:06.648Z,24.30
2022-10-16T14:58:15.152Z,24.20
2022-10-16T15:02:35.932Z,24.20
2022-10-16T15:06:39.518Z,24.10
2022-10-16T15:10:45.025Z,24.00
2022-10-16T15:14:47.794Z,24.00
2022-10-16T15:18:50.620Z,23.90
2022-10-16T15:22:53.784Z,23.90
2022-10-16T15:26:56.588Z,23.80
2022-10-16T15:30:59.649Z,23.70
2022-10-16T15:35:04.488Z,23.60
2022-10-16T15:39:14.711Z,23.40
2022-10-16T15:43:17.965Z,23.30
2022-10-16T15:47:21.015Z,23.10
2022-10-16T15:51:33.659Z,23.00
2022-10-16T15:56:08.855Z,22.80
2022-10-16T16:00:26.701Z,22.60
2022-10-16T16:04:43.310Z,22.40
2022-10-16T16:08:46.726Z,22.20
2022-10-16T16:12:53.046Z,22.00
2022-10-16T16:17:17.454Z,21.90
2022-10-16T16:21:20.575Z,21.70
2022-10-16T16:29:42.301Z,21.50
2022-10-16T16:33:45.826Z,21.40
2022-10-16T16:37:49.650Z,21.20
2022-10-16T16:41:54.648Z,21.10
2022-10-16T16:46:06.138Z,21.00
2022-10-16T17:04:40.402Z,20.60
2022-10-16T17:14:27.643Z,20.20
2022-10-16T18:11:09.265Z,19.50
2022-10-16T18:16:27.524Z,19.40
2022-10-16T18:27:12.603Z,19.40
2022-10-16T18:32:39.268Z,19.30
2022-10-16T18:43:31.348Z,19.10
2022-10-16T18:48:20.100Z,19.00
2022-10-16T18:52:24.074Z,19.00
2022-10-16T18:56:40.013Z,19.00
2022-10-16T19:00:52.227Z,19.00
2022-10-16T19:04:55.785Z,19.00
2022-10-16T19:08:59.511Z,19.00
2022-10-16T19:13:03.654Z,18.90
2022-10-16T19:17:08.520Z,18.90
2022-10-16T19:21:14.418Z,18.80
2022-10-16T19:25:25.428Z,18.90
2022-10-16T19:29:49.392Z,18.90
2022-10-16T19:34:41.803Z,18.80
2022-10-16T19:39:03.781Z,18.80
2022-10-16T19:50:15.405Z,18.60
2022-10-16T19:54:50.694Z,18.50
2022-10-16T20:15:17.276Z,18.20
2022-10-16T20:27:02.427Z,18.10
2022-10-16T20:31:20.176Z,18.00
2022-10-16T20:35:59.094Z,17.90
2022-10-16T20:40:35.241Z,17.80
2022-10-16T20:44:47.903Z,17.80
2022-10-16T20:48:53.748Z,17.70
2022-10-16T20:52:57.689Z,17.70
2022-10-16T20:57:00.604Z,17.70
2022-10-16T21:01:09.123Z,17.70
2022-10-16T21:05:12.369Z,17.60
2022-10-16T21:09:15.427Z,17.50
2022-10-16T21:13:18.431Z,17.40
2022-10-16T21:17:21.277Z,17.30
2022-10-16T21:21:27.406Z,17.20
2022-10-16T21:25:30.302Z,17.20
2022-10-16T21:29:35.851Z,17.20
2022-10-16T21:33:38.888Z,17.20
2022-10-16T21:37:41.762Z,17.20
2022-10-16T21:41:46.534Z,17.10
2022-10-16T21:45:49.924Z,17.10
2022-10-16T21:49:52.836Z,17.10
2022-10-16T21:53:56.135Z,17.10
2022-10-16T21:57:59.101Z,17.10
2022-10-16T22:02:03.368Z,17.20
2022-10-16T22:06:08.479Z,17.10
2022-10-16T22:10:11.512Z,17.20
2022-10-16T22:14:20.189Z,17.20
2022-10-16T22:18:23.129Z,17.10
2022-10-16T22:22:26.041Z,17.10
2022-10-16T22:26:29.090Z,17.00
2022-10-16T22:30:35.809Z,17.00
2022-10-16T22:34:38.797Z,17.00
2022-10-16T22:38:42.393Z,17.00
2022-10-16T22:42:45.427Z,17.00
2022-10-16T22:46:49.460Z,17.00
2022-10-16T22:50:52.762Z,16.90
2022-10-16T22:54:55.736Z,16.90
2022-10-16T22:58:58.867Z,16.90
2022-10-16T23:03:01.793Z,16.90
2022-10-16T23:07:04.690Z,16.90
2022-10-16T23:11:10.213Z,16.80
2022-10-16T23:15:13.380Z,16.70
2022-10-16T23:19:16.873Z,16.60
2022-10-16T23:23:19.749Z,16.50
2022-10-16T23:27:22.640Z,16.50
2022-10-16T23:31:26.355Z,16.50
2022-10-16T23:35:29.231Z,16.50
2022-10-16T23:39:32.307Z,16.50
2022-10-16T23:43:35.986Z,16.40
2022-10-16T23:47:38.896Z,16.50
2022-10-16T23:51:41.860Z,16.40
2022-10-16T23:55:49.928Z,16.40
2022-10-16T23:59:53.030Z,16.30
